Time;durP1;ratioP1;P1;durP2;ratioP2;P2;SDS_P1;SDS_P2;PMS_P1;PMS_P2;Temp;Humidity;BMP_temperature;BMP_pressure;BME280_temperature;BME280_humidity;BME280_pressure;Samples;Min_cycle;Max_cycle;Signal;HPM_P1;HPM_P2
2022/04/30 00:00:59;;;;;;;9.57;4.15;;;;;;;12.31;71.15;95041.22;5040402;28;20344;-76
2022/04/30 00:03:28;;;;;;;8.25;4.85;;;;;;;12.32;71.15;95036.59;5033292;28;20200;-76
2022/04/30 00:05:55;;;;;;;5.60;3.22;;;;;;;12.33;71.37;95028.13;5033568;28;20231;-76
2022/04/30 00:08:22;;;;;;;12.07;5.22;;;;;;;12.35;72.53;95025.06;5033844;28;20256;-76
2022/04/30 00:10:50;;;;;;;12.63;4.30;;;;;;;12.24;72.89;95026.59;5033322;28;20204;-76
2022/04/30 00:13:19;;;;;;;9.00;3.95;;;;;;;12.16;72.61;95024.72;5033284;28;20223;-76
2022/04/30 00:15:45;;;;;;;13.45;8.63;;;;;;;12.20;72.55;95028.34;5033482;28;20200;-76
2022/04/30 00:18:12;;;;;;;13.57;8.68;;;;;;;12.23;72.90;95030.41;5032843;28;20515;-76
2022/04/30 00:20:45;;;;;;;7.13;4.78;;;;;;;12.13;72.69;95033.53;5033485;28;20204;-76
2022/04/30 00:23:20;;;;;;;7.97;4.22;;;;;;;12.14;72.46;95024.25;5033022;28;20196;-76
2022/04/30 00:25:51;;;;;;;9.82;4.93;;;;;;;12.19;72.51;95026.75;5034112;28;20269;-76
2022/04/30 00:28:21;;;;;;;8.20;3.85;;;;;;;12.19;72.28;95026.75;5032820;28;20621;-77
2022/04/30 00:30:49;;;;;;;7.00;3.65;;;;;;;12.12;72.42;95037.34;5033597;28;20267;-77
2022/04/30 00:33:16;;;;;;;8.80;3.88;;;;;;;12.16;72.16;95038.31;5033067;28;20204;-77
2022/04/30 00:35:43;;;;;;;8.75;5.15;;;;;;;12.17;72.20;95023.56;5032831;28;20221;-76
2022/04/30 00:38:11;;;;;;;9.95;4.70;;;;;;;12.05;72.72;95033.22;5032862;28;20288;-77
2022/04/30 00:40:38;;;;;;;6.57;3.72;;;;;;;11.95;72.94;95033.59;5032597;28;20199;-77
2022/04/30 00:43:05;;;;;;;8.65;4.47;;;;;;;11.86;72.89;95030.13;5032492;28;20659;-75
2022/04/30 00:45:33;;;;;;;9.90;6.25;;;;;;;11.80;73.23;95025.19;5032717;28;20587;-77
2022/04/30 00:48:00;;;;;;;6.28;3.58;;;;;;;11.80;73.58;95034.13;5032716;28;20222;-77
2022/04/30 00:50:29;;;;;;;8.35;5.50;;;;;;;11.68;74.01;95028.56;5020144;28;20204;-76
2022/04/30 00:52:58;;;;;;;7.45;3.45;;;;;;;11.61;74.32;95028.28;5032795;28;20636;-76
2022/04/30 00:55:30;;;;;;;5.63;3.47;;;;;;;11.57;74.55;95032.75;5032424;28;20271;-76
2022/04/30 00:58:00;;;;;;;5.05;3.60;;;;;;;11.54;74.28;95020.63;5032206;28;20225;-76
2022/04/30 01:00:29;;;;;;;8.10;3.78;;;;;;;11.59;74.32;95030.50;5032994;28;20223;-76
2022/04/30 01:02:58;;;;;;;8.80;4.03;;;;;;;11.64;74.43;95016.75;5032268;28;20575;-76
2022/04/30 01:05:25;;;;;;;6.88;4.20;;;;;;;11.70;74.33;95020.88;5032274;28;20663;-76
2022/04/30 01:07:52;;;;;;;7.85;3.25;;;;;;;11.74;74.14;95025.34;5031609;28;20232;-76
2022/04/30 01:10:20;;;;;;;5.82;3.70;;;;;;;11.79;74.43;95024.38;5032270;28;20232;-76
2022/04/30 01:12:47;;;;;;;5.82;3.05;;;;;;;11.76;74.80;95025.03;5031594;28;20685;-76
2022/04/30 01:15:15;;;;;;;8.90;4.50;;;;;;;11.73;74.91;95020.25;5032634;28;20270;-77
2022/04/30 01:17:43;;;;;;;6.55;4.38;;;;;;;11.69;75.24;95025.50;5032148;28;20208;-76
2022/04/30 01:20:12;;;;;;;9.57;4.43;;;;;;;11.56;75.62;95014.88;5031731;28;20216;-76
2022/04/30 01:22:53;;;;;;;4.47;3.25;;;;;;;11.56;75.44;95015.66;5031929;28;20200;-76
2022/04/30 01:25:21;;;;;;;10.02;3.72;;;;;;;11.54;75.54;95023.31;5034205;28;20192;-76
2022/04/30 01:27:50;;;;;;;10.57;4.05;;;;;;;11.54;75.66;95026.03;5031411;28;20294;-76
2022/04/30 01:30:17;;;;;;;5.18;3.30;;;;;;;11.46;75.74;95015.22;5032006;28;20200;-76
2022/04/30 01:38:16;;;;;;;14.18;7.32;;;;;;;10.91;77.36;95016.75;5031666;28;20200;-76
2022/04/30 01:40:43;;;;;;;16.95;4.20;;;;;;;10.87;78.06;95020.41;5012302;28;20233;-76
2022/04/30 01:43:10;;;;;;;10.65;5.07;;;;;;;10.81;78.35;95016.25;5024997;28;20204;-75
2022/04/30 01:45:38;;;;;;;7.72;4.43;;;;;;;10.79;78.33;95018.50;5031874;28;20193;-76
2022/04/30 01:48:06;;;;;;;9.60;4.72;;;;;;;10.89;77.93;95015.47;5031316;28;20212;-76
2022/04/30 01:50:34;;;;;;;16.92;8.98;;;;;;;10.87;77.88;95014.97;5031321;28;20618;-75
2022/04/30 01:53:01;;;;;;;7.63;4.10;;;;;;;10.84;77.78;95021.03;5031697;28;20239;-77
2022/04/30 01:55:29;;;;;;;6.72;3.08;;;;;;;10.83;78.05;95019.44;5031574;28;20220;-76
2022/04/30 01:57:57;;;;;;;8.98;3.95;;;;;;;10.81;78.16;95006.19;5031299;28;20229;-76
2022/04/30 02:00:26;;;;;;;8.15;4.43;;;;;;;10.82;78.38;95015.94;5031492;28;20291;-76
2022/04/30 02:02:55;;;;;;;8.07;4.72;;;;;;;10.87;78.02;95014.97;5031493;28;20200;-78
2022/04/30 02:05:23;;;;;;;9.30;4.35;;;;;;;10.83;78.31;95008.59;5031526;28;20239;-75
2022/04/30 02:07:53;;;;;;;9.48;5.25;;;;;;;10.85;78.45;95011.78;5031594;28;20618;-76
2022/04/30 02:10:21;;;;;;;11.85;4.45;;;;;;;10.83;78.42;95014.00;5031844;28;20204;-76
2022/04/30 02:12:51;;;;;;;6.85;3.63;;;;;;;10.83;78.74;95020.22;5031674;28;20357;-75
2022/04/30 02:15:20;;;;;;;5.80;3.13;;;;;;;10.82;78.61;95018.63;5031299;28;20386;-75
2022/04/30 02:17:48;;;;;;;8.55;3.95;;;;;;;10.94;78.29;95015.28;5031165;28;20204;-77
2022/04/30 02:20:22;;;;;;;4.53;2.85;;;;;;;10.93;77.94;95021.84;5031465;28;20196;-76
2022/04/30 02:22:49;;;;;;;9.68;3.65;;;;;;;10.86;78.33;95021.50;5044598;28;20224;-76
2022/04/30 02:25:17;;;;;;;4.97;3.20;;;;;;;10.73;78.60;95015.13;5033117;28;20209;-76
2022/04/30 02:27:46;;;;;;;9.60;4.18;;;;;;;10.77;78.30;95015.31;5030875;28;20240;-77
2022/04/30 02:30:17;;;;;;;5.78;2.88;;;;;;;10.82;77.99;95007.00;5031173;28;20208;-77
2022/04/30 02:32:46;;;;;;;6.90;3.45;;;;;;;10.88;77.70;95005.72;5018437;28;20188;-77
2022/04/30 02:35:14;;;;;;;3.55;2.53;;;;;;;10.89;77.23;95001.91;5030995;28;20227;-76
2022/04/30 02:37:41;;;;;;;5.90;3.05;;;;;;;10.88;77.38;95005.72;5031026;28;20578;-77
2022/04/30 02:40:09;;;;;;;4.35;2.25;;;;;;;10.79;77.47;95004.94;5031123;28;20283;-76
2022/04/30 02:42:35;;;;;;;3.13;2.13;;;;;;;10.60;78.06;95016.88;5030717;28;20211;-77
2022/04/30 02:45:02;;;;;;;8.82;2.65;;;;;;;10.28;79.10;95007.28;5030536;28;20247;-76
2022/04/30 02:47:30;;;;;;;9.43;3.33;;;;;;;10.31;78.94;95003.16;5031146;28;20235;-76
2022/04/30 02:49:57;;;;;;;5.95;2.78;;;;;;;10.25;79.02;95005.19;5031071;28;20658;-76
2022/04/30 02:52:24;;;;;;;6.50;3.28;;;;;;;10.31;79.01;94997.75;5030354;28;20580;-77
2022/04/30 02:54:51;;;;;;;6.07;3.55;;;;;;;10.27;78.99;95002.19;5030881;28;20224;-76
2022/04/30 02:57:18;;;;;;;5.90;3.90;;;;;;;10.20;79.11;95002.66;5030995;28;20235;-77
2022/04/30 02:59:58;;;;;;;6.90;3.58;;;;;;;10.21;78.96;95008.88;5030518;28;20200;-77
2022/04/30 03:02:25;;;;;;;4.78;3.05;;;;;;;10.24;78.94;94998.22;5030615;28;20203;-77
2022/04/30 03:04:53;;;;;;;4.75;3.15;;;;;;;10.32;78.56;95002.03;5030571;28;20663;-77
2022/04/30 03:07:22;;;;;;;7.03;2.78;;;;;;;10.24;78.71;94997.41;5030435;28;20327;-77
2022/04/30 03:09:49;;;;;;;3.55;2.78;;;;;;;10.26;78.85;94997.88;5036000;28;20207;-76
2022/04/30 03:12:17;;;;;;;4.40;2.72;;;;;;;10.36;78.49;94994.88;5038765;28;20211;-76
2022/04/30 03:14:44;;;;;;;7.25;3.38;;;;;;;10.35;78.40;94990.59;5030842;28;20212;-76
2022/04/30 03:22:51;;;;;;;12.20;2.80;;;;;;;10.12;79.32;94997.19;5002976;28;20251;-77
2022/04/30 03:25:18;;;;;;;4.38;3.17;;;;;;;10.03;79.46;94996.38;5033181;28;20205;-76
2022/04/30 03:27:45;;;;;;;3.25;2.40;;;;;;;9.94;79.95;95007.97;5030821;28;20278;-77
2022/04/30 03:30:13;;;;;;;5.90;2.90;;;;;;;9.89;80.27;95008.13;5030624;28;20204;-76
2022/04/30 03:32:42;;;;;;;8.90;3.75;;;;;;;9.86;80.08;95003.31;5032674;28;20204;-76
2022/04/30 03:35:10;;;;;;;5.43;3.42;;;;;;;9.84;80.19;95005.53;5034201;28;20267;-76
2022/04/30 03:37:38;;;;;;;2.75;2.15;;;;;;;9.80;80.19;95010.00;5021248;28;20686;-76
2022/04/30 03:40:06;;;;;;;4.40;2.65;;;;;;;9.89;79.82;95013.53;5034119;28;20200;-76
2022/04/30 03:42:33;;;;;;;6.72;3.28;;;;;;;9.81;80.18;95017.00;5033895;28;20204;-77
2022/04/30 03:45:00;;;;;;;4.45;2.38;;;;;;;9.73;80.87;95020.47;5033914;28;20232;-77
2022/04/30 03:47:27;;;;;;;9.82;4.00;;;;;;;9.88;80.75;95028.16;5033762;28;20232;-77
2022/04/30 03:49:54;;;;;;;5.07;2.72;;;;;;;10.34;79.32;95024.19;5034059;28;20205;-77
2022/04/30 03:52:24;;;;;;;5.45;3.20;;;;;;;10.41;78.21;95019.09;5034045;28;20205;-77
2022/04/30 03:54:51;;;;;;;3.13;2.08;;;;;;;10.28;78.53;95014.59;5033660;28;20627;-77
2022/04/30 03:57:18;;;;;;;3.03;2.17;;;;;;;10.16;79.12;95017.09;5033816;28;20232;-77
2022/04/30 03:59:45;;;;;;;9.52;3.42;;;;;;;10.22;79.15;95021.31;5034120;28;20208;-77
2022/04/30 04:02:12;;;;;;;4.00;2.42;;;;;;;10.20;78.98;95007.28;5033646;28;20208;-76
2022/04/30 04:04:39;;;;;;;7.40;2.25;;;;;;;10.21;79.23;95023.22;5033362;28;20654;-78
2022/04/30 04:07:06;;;;;;;3.90;2.50;;;;;;;10.47;78.78;95020.53;5033467;28;20236;-75
2022/04/30 04:09:35;;;;;;;8.40;2.72;;;;;;;10.57;78.08;95022.13;5033906;28;20201;-77
2022/04/30 04:12:02;;;;;;;8.23;4.97;;;;;;;10.84;77.22;95021.03;5033473;28;20212;-76
2022/04/30 04:19:58;;;;;;;23.95;3.92;;;;;;;11.46;75.14;95017.94;5021686;28;20192;-77
2022/04/30 04:22:25;;;;;;;5.68;2.78;;;;;;;11.68;73.74;95014.97;5033592;28;20653;-76
2022/04/30 04:27:37;;;;;;;6.15;2.95;;;;;;;13.10;69.68;95012.38;5033111;28;20269;-77
2022/04/30 04:30:06;;;;;;;7.07;3.53;;;;;;;14.14;65.78;95012.84;5033171;28;20239;-77
2022/04/30 04:32:32;;;;;;;4.68;2.90;;;;;;;15.83;60.67;95006.50;5032729;28;20200;-77
2022/04/30 04:34:59;;;;;;;9.85;3.63;;;;;;;16.59;57.86;95002.47;5032831;28;20220;-76
2022/04/30 04:37:27;;;;;;;4.70;3.10;;;;;;;17.07;56.47;94989.47;5032893;28;20208;-76
2022/04/30 04:39:56;;;;;;;8.65;5.70;;;;;;;17.63;55.32;94987.06;5033258;28;20300;-77
2022/04/30 04:42:23;;;;;;;9.52;6.35;;;;;;;18.06;53.52;94985.88;5013291;28;20292;-77
2022/04/30 04:44:50;;;;;;;10.63;6.07;;;;;;;18.45;52.04;94981.78;5025751;28;20232;-77
2022/04/30 04:47:17;;;;;;;10.23;6.57;;;;;;;19.35;50.29;94981.09;5032812;28;20239;-77
2022/04/30 04:49:44;;;;;;;10.23;5.93;;;;;;;19.87;49.06;94983.63;5032396;28;20659;-76
2022/04/30 04:52:11;;;;;;;8.95;6.30;;;;;;;19.12;49.72;94987.50;5032752;28;20212;-78
2022/04/30 04:54:38;;;;;;;8.25;6.10;;;;;;;18.66;51.30;94991.53;5032485;28;20220;-77
2022/04/30 04:57:07;;;;;;;8.55;5.90;;;;;;;17.79;53.49;95001.44;5032371;28;20231;-78
2022/04/30 04:59:34;;;;;;;8.52;6.38;;;;;;;16.87;55.65;95002.34;5033184;28;20211;-80
2022/04/30 05:02:02;;;;;;;8.85;6.00;;;;;;;16.61;56.76;95022.06;5033084;28;20594;-78
2022/04/30 05:04:29;;;;;;;13.30;6.30;;;;;;;16.20;57.56;95013.28;5032562;28;20232;-78
2022/04/30 05:06:57;;;;;;;13.05;7.35;;;;;;;15.53;59.06;95020.50;5029806;28;20232;-78
2022/04/30 05:09:23;;;;;;;9.82;6.50;;;;;;;15.84;58.69;95019.00;5030994;28;20204;-78
2022/04/30 05:11:51;;;;;;;9.10;6.47;;;;;;;16.18;58.05;95022.97;5032763;28;20208;-77
2022/04/30 05:14:19;;;;;;;11.07;6.82;;;;;;;17.05;56.18;95015.25;5032507;28;20269;-77
2022/04/30 05:16:47;;;;;;;10.07;6.07;;;;;;;18.97;51.70;95007.69;5032437;28;20242;-80
2022/04/30 05:19:13;;;;;;;8.60;6.13;;;;;;;20.97;46.85;95004.97;5032475;28;20209;-80
2022/04/30 05:21:41;;;;;;;7.57;5.45;;;;;;;22.11;43.33;94996.00;5030812;28;20189;-78
2022/04/30 05:24:08;;;;;;;8.07;6.38;;;;;;;22.49;42.34;94997.19;5033329;28;20235;-77
2022/04/30 05:26:34;;;;;;;10.82;6.97;;;;;;;22.92;41.43;94988.91;5028303;28;20212;-74
2022/04/30 05:29:01;;;;;;;9.77;6.80;;;;;;;21.38;44.22;95002.84;5030325;28;20231;-78
2022/04/30 05:31:30;;;;;;;9.27;6.38;;;;;;;22.08;43.77;94991.25;5030853;28;20200;-78
2022/04/30 05:33:56;;;;;;;12.25;7.18;;;;;;;22.66;42.18;94993.66;5028002;28;20200;-76
2022/04/30 05:36:23;;;;;;;10.13;7.18;;;;;;;23.06;40.58;94991.63;5030526;28;20199;-79
2022/04/30 05:38:51;;;;;;;11.25;7.43;;;;;;;22.37;42.46;94994.84;5030237;28;20196;-79
2022/04/30 05:41:18;;;;;;;10.70;7.38;;;;;;;20.81;45.05;95008.00;5031489;28;20258;-79
2022/04/30 05:43:45;;;;;;;14.40;8.07;;;;;;;19.13;48.96;95013.00;5031699;28;20263;-78
2022/04/30 05:46:13;;;;;;;10.20;7.68;;;;;;;18.92;49.59;95021.72;5031891;28;20205;-78
2022/04/30 05:48:42;;;;;;;10.75;7.32;;;;;;;19.29;49.03;95015.53;5031269;28;20224;-77
2022/04/30 05:51:08;;;;;;;11.20;7.13;;;;;;;19.73;48.08;95016.47;5029888;28;20784;-78
2022/04/30 05:53:35;;;;;;;12.55;7.15;;;;;;;19.56;48.54;95022.56;5030246;28;20224;-77
2022/04/30 05:56:02;;;;;;;12.43;7.68;;;;;;;20.30;46.64;95017.03;5030127;28;20193;-78
2022/04/30 05:58:29;;;;;;;10.80;7.22;;;;;;;19.63;47.91;95017.16;5031573;28;20274;-77
2022/04/30 06:00:56;;;;;;;11.48;7.68;;;;;;;20.11;47.22;95014.50;5031073;28;20200;-78
2022/04/30 06:03:23;;;;;;;11.57;7.28;;;;;;;19.15;49.39;95019.69;5030917;28;20192;-75
2022/04/30 06:05:51;;;;;;;10.60;7.10;;;;;;;19.39;48.37;95017.63;5030043;28;20204;-78
2022/04/30 06:08:18;;;;;;;11.55;7.35;;;;;;;19.47;48.98;95024.78;5028775;28;20309;-78
2022/04/30 06:10:44;;;;;;;15.70;6.90;;;;;;;19.16;49.55;95025.97;5024734;28;20250;-81
2022/04/30 06:13:12;;;;;;;11.80;7.03;;;;;;;19.26;48.93;95019.03;5029901;28;20659;-81
2022/04/30 06:15:38;;;;;;;11.93;7.32;;;;;;;19.47;48.63;95014.59;5030181;28;20307;-79
2022/04/30 06:18:05;;;;;;;10.00;6.78;;;;;;;19.23;48.86;95019.78;5030076;28;20606;-80
2022/04/30 06:20:33;;;;;;;10.10;6.53;;;;;;;19.68;47.60;95022.31;5030038;28;20196;-78
2022/04/30 06:23:02;;;;;;;9.50;6.45;;;;;;;19.93;47.38;95013.56;5029024;28;20283;-76
2022/04/30 06:25:29;;;;;;;8.70;6.15;;;;;;;21.65;43.62;95001.38;5031578;28;20200;-78
2022/04/30 06:27:56;;;;;;;8.10;5.50;;;;;;;22.29;41.34;95001.53;5029275;28;20691;-79
2022/04/30 06:30:23;;;;;;;9.27;6.70;;;;;;;22.15;41.17;95001.50;5029354;28;20350;-79
2022/04/30 06:32:50;;;;;;;8.60;6.07;;;;;;;21.21;43.00;95016.16;5030232;28;20193;-77
2022/04/30 06:35:16;;;;;;;9.10;6.18;;;;;;;21.29;42.86;95019.75;5029780;28;20224;-79
2022/04/30 06:37:43;;;;;;;9.00;6.07;;;;;;;21.03;43.42;95015.25;5029890;28;20614;-83
2022/04/30 06:40:13;;;;;;;10.45;6.57;;;;;;;21.43;42.98;95005.25;5029521;28;20788;-80
2022/04/30 06:42:40;;;;;;;7.43;5.80;;;;;;;20.50;44.61;95021.16;5029288;28;20287;-79
2022/04/30 06:45:10;;;;;;;9.38;6.25;;;;;;;19.33;46.53;95021.88;5027919;28;20259;-81
2022/04/30 06:47:37;;;;;;;7.57;5.75;;;;;;;19.04;48.38;95010.50;5029288;28;20282;-75
2022/04/30 06:50:05;;;;;;;9.45;5.80;;;;;;;18.93;47.16;95017.81;5028880;28;20204;-75
2022/04/30 06:52:32;;;;;;;8.77;5.85;;;;;;;17.82;50.04;95021.88;5028792;28;20694;-79
2022/04/30 06:57:46;;;;;;;9.73;5.70;;;;;;;18.27;49.25;95019.13;5028847;28;20714;-78
2022/04/30 07:02:59;;;;;;;10.35;5.78;;;;;;;20.58;44.28;95009.06;5027989;28;20204;-77
2022/04/30 07:05:27;;;;;;;7.55;5.68;;;;;;;18.98;47.36;95014.75;5029466;28;20195;-81
2022/04/30 07:07:53;;;;;;;9.35;6.40;;;;;;;18.67;48.66;95012.34;5030340;28;20295;-78
2022/04/30 07:10:20;;;;;;;6.13;5.10;;;;;;;19.49;46.91;95006.00;5033094;28;20663;-76
2022/04/30 07:12:49;;;;;;;8.30;5.60;;;;;;;19.46;46.35;95014.97;5032777;28;20211;-84
2022/04/30 07:15:15;;;;;;;8.07;5.35;;;;;;;20.01;44.97;95004.19;5031529;28;20216;-77
2022/04/30 07:17:42;;;;;;;9.75;6.25;;;;;;;20.14;44.81;95008.25;5033410;28;20208;-84
2022/04/30 07:20:10;;;;;;;9.45;6.25;;;;;;;20.29;44.83;95004.44;5034861;28;20208;-81
2022/04/30 07:22:38;;;;;;;8.77;6.10;;;;;;;20.68;43.84;95004.78;5033897;28;20427;-79
2022/04/30 07:25:06;;;;;;;8.45;5.88;;;;;;;20.08;44.52;95004.28;5036116;28;20195;-79
2022/04/30 07:27:33;;;;;;;9.52;6.03;;;;;;;19.37;45.59;95008.97;5033059;28;20544;-84
2022/04/30 07:30:03;;;;;;;9.43;6.45;;;;;;;18.47;48.57;95017.88;5033719;28;20243;-80
2022/04/30 07:32:30;;;;;;;7.78;5.47;;;;;;;19.18;46.67;95007.97;5033074;28;20208;-83
2022/04/30 07:34:57;;;;;;;6.03;4.53;;;;;;;19.20;46.17;95015.03;5033670;28;20213;-79
2022/04/30 07:37:24;;;;;;;7.43;5.18;;;;;;;18.37;47.93;95010.28;5030765;28;20200;-84
2022/04/30 07:39:50;;;;;;;7.88;5.03;;;;;;;18.58;47.63;95011.78;5027833;28;20208;-79
2022/04/30 07:42:17;;;;;;;6.32;4.55;;;;;;;18.39;47.76;94999.75;5034010;28;20192;-81
2022/04/30 07:44:44;;;;;;;6.28;4.47;;;;;;;18.14;48.31;95003.25;5027196;28;20224;-85
2022/04/30 07:47:12;;;;;;;7.97;5.13;;;;;;;17.33;50.75;95008.78;5034959;28;20204;-84
2022/04/30 07:49:41;;;;;;;8.15;5.57;;;;;;;17.29;51.40;95002.44;5034235;28;20243;-81
2022/04/30 07:52:08;;;;;;;7.35;4.85;;;;;;;18.00;49.63;94995.56;5033690;28;20235;-81
2022/04/30 07:54:35;;;;;;;8.07;5.45;;;;;;;19.31;46.27;94999.47;5033766;28;20224;-83
2022/04/30 07:57:02;;;;;;;6.85;4.75;;;;;;;18.65;46.84;94998.19;5034818;28;20227;-83
2022/04/30 07:59:29;;;;;;;6.85;4.55;;;;;;;18.91;45.99;94997.38;5035719;28;20209;-89
2022/04/30 08:01:56;;;;;;;7.38;5.32;;;;;;;18.18;48.10;94988.41;5034223;28;20250;-80
2022/04/30 08:04:25;;;;;;;7.22;4.82;;;;;;;17.83;47.82;95004.25;5032466;28;20207;-80
2022/04/30 08:06:52;;;;;;;6.22;4.85;;;;;;;17.71;48.65;94994.28;5030316;28;20220;-82
2022/04/30 08:09:19;;;;;;;8.25;4.82;;;;;;;18.44;48.25;94996.69;5032264;28;20228;-80
2022/04/30 08:11:46;;;;;;;8.45;4.47;;;;;;;19.72;45.80;94981.13;5032392;28;20200;-79
2022/04/30 08:14:13;;;;;;;5.88;4.20;;;;;;;18.99;44.26;94983.41;5030538;28;20193;-82
2022/04/30 08:16:40;;;;;;;8.48;4.13;;;;;;;19.72;43.94;94970.13;5031791;28;20204;-82
2022/04/30 08:19:07;;;;;;;10.80;4.97;;;;;;;20.38;43.58;94979.38;5032539;28;20207;-85
2022/04/30 08:21:35;;;;;;;6.43;5.00;;;;;;;19.42;45.51;94981.94;5033598;28;20203;-83
2022/04/30 08:24:03;;;;;;;8.90;5.32;;;;;;;19.36;45.55;94974.44;5034798;28;20681;-81
2022/04/30 08:26:30;;;;;;;6.03;4.32;;;;;;;19.45;44.86;94983.16;5032231;28;20228;-79
2022/04/30 08:28:56;;;;;;;6.85;5.00;;;;;;;19.57;45.21;94980.19;5032588;28;20223;-79
2022/04/30 08:31:23;;;;;;;7.35;5.22;;;;;;;20.23;43.75;94979.25;5031723;28;20201;-77
2022/04/30 08:33:51;;;;;;;6.60;4.63;;;;;;;21.09;41.54;94964.09;5031307;28;20224;-80
2022/04/30 08:36:19;;;;;;;6.75;5.10;;;;;;;20.65;42.60;94971.72;5031383;28;20200;-80
2022/04/30 08:38:47;;;;;;;7.57;5.00;;;;;;;19.31;45.62;94977.50;5027654;28;20209;-78
2022/04/30 08:41:14;;;;;;;6.40;4.78;;;;;;;18.37;46.65;94982.84;5027852;28;20192;-79
2022/04/30 08:43:42;;;;;;;7.63;4.95;;;;;;;17.68;48.97;94987.56;5031751;28;20341;-79
2022/04/30 08:46:09;;;;;;;8.75;5.18;;;;;;;17.47;50.11;94973.44;5031926;28;20197;-81
2022/04/30 08:48:37;;;;;;;7.32;5.07;;;;;;;17.16;50.94;94992.78;5031685;28;20228;-83
2022/04/30 08:51:04;;;;;;;7.55;5.22;;;;;;;17.26;51.26;94981.25;5028430;28;20718;-80
2022/04/30 08:53:32;;;;;;;9.73;4.05;;;;;;;17.31;49.57;94979.00;5031200;28;20219;-75
2022/04/30 08:56:00;;;;;;;8.30;5.10;;;;;;;17.29;50.58;94981.31;5031174;28;20223;-80
2022/04/30 08:58:27;;;;;;;6.57;4.78;;;;;;;17.94;49.29;94975.09;5031621;28;20204;-83
2022/04/30 09:00:54;;;;;;;6.88;4.53;;;;;;;18.35;48.79;94976.94;5029207;28;20224;-78
2022/04/30 09:03:22;;;;;;;5.40;3.90;;;;;;;18.21;50.75;94971.22;5031284;28;20563;-82
2022/04/30 09:05:49;;;;;;;5.57;4.03;;;;;;;17.45;51.27;94986.72;5030803;28;20198;-80
2022/04/30 09:08:17;;;;;;;6.05;3.95;;;;;;;16.74;53.64;94971.56;5030884;28;20224;-83
2022/04/30 09:10:44;;;;;;;5.65;4.03;;;;;;;16.60;54.14;94977.50;5030436;28;20255;-77
2022/04/30 09:13:14;;;;;;;6.95;4.32;;;;;;;16.59;54.31;94964.16;5031388;28;20200;-80
2022/04/30 09:15:44;;;;;;;5.18;3.53;;;;;;;16.79;54.19;94962.28;5030755;28;20291;-77
2022/04/30 09:18:12;;;;;;;4.82;3.28;;;;;;;16.50;54.45;94969.06;5030565;28;20196;-81
2022/04/30 09:20:44;;;;;;;5.95;4.00;;;;;;;16.46;55.04;94970.91;5031057;28;20192;-84
2022/04/30 09:23:11;;;;;;;6.88;3.83;;;;;;;16.80;53.85;94970.16;5030373;28;20667;-79
2022/04/30 09:25:50;;;;;;;6.32;4.20;;;;;;;17.03;52.59;94968.28;5032037;28;20224;-79
2022/04/30 09:28:25;;;;;;;5.53;3.72;;;;;;;17.30;52.00;94961.00;5030579;28;20204;-81
2022/04/30 09:31:03;;;;;;;6.15;3.28;;;;;;;17.11;52.01;94962.94;5029777;28;20184;-80
2022/04/30 09:33:30;;;;;;;6.45;3.75;;;;;;;17.30;51.03;94957.47;5030596;28;20227;-81
2022/04/30 09:38:48;;;;;;;4.15;2.80;;;;;;;17.47;50.73;94948.81;5031037;28;20203;-81
2022/04/30 09:41:14;;;;;;;3.05;2.42;;;;;;;17.32;50.82;94952.44;5030366;28;20291;-75
2022/04/30 09:43:43;;;;;;;3.90;2.70;;;;;;;17.53;50.80;94944.59;5029402;28;20312;-77
2022/04/30 09:46:11;;;;;;;4.60;3.00;;;;;;;17.53;49.73;94952.00;5030377;28;20291;-71
2022/04/30 09:54:07;;;;;;;4.28;2.45;;;;;;;17.32;50.06;94936.78;5030283;28;20246;-85
2022/04/30 09:56:36;;;;;;;3.00;2.10;;;;;;;17.51;49.79;94944.16;5021895;28;20301;-83
2022/04/30 09:59:10;;;;;;;2.92;1.95;;;;;;;16.91;50.20;94932.06;5025750;28;20582;-77
2022/04/30 10:01:39;;;;;;;7.28;2.17;;;;;;;17.08;50.04;94952.72;5029978;28;20200;-76
2022/04/30 10:04:08;;;;;;;3.38;2.47;;;;;;;17.77;49.19;94919.59;5031108;28;20291;-83
2022/04/30 10:06:37;;;;;;;4.07;2.65;;;;;;;17.98;47.86;94940.31;5031268;28;20302;-82
2022/04/30 10:09:09;;;;;;;3.00;2.20;;;;;;;17.60;48.06;94931.03;5042351;28;20239;-77
2022/04/30 10:11:44;;;;;;;4.15;2.60;;;;;;;17.58;48.20;94922.38;5044337;28;20204;-86
2022/04/30 10:14:31;;;;;;;3.15;2.40;;;;;;;18.14;46.86;94899.84;5029286;28;20296;-85
2022/04/30 10:17:16;;;;;;;3.65;2.20;;;;;;;18.33;46.86;94913.44;5029890;28;20196;-84
2022/04/30 10:19:45;;;;;;;3.25;2.30;;;;;;;19.14;45.32;94889.00;5030413;28;20199;-80
2022/04/30 10:22:14;;;;;;;4.43;2.42;;;;;;;19.48;43.77;94903.50;5031529;28;20245;-78
2022/04/30 10:24:48;;;;;;;3.42;2.38;;;;;;;19.48;44.35;94900.75;5033814;28;20235;-78
2022/04/30 10:27:16;;;;;;;3.95;2.67;;;;;;;18.84;44.05;94893.78;5031086;28;20315;-80
2022/04/30 10:29:56;;;;;;;3.05;2.45;;;;;;;19.39;43.74;94888.50;5031467;28;20228;-79
2022/04/30 10:32:31;;;;;;;2.92;2.22;;;;;;;19.22;45.14;94902.84;5031117;28;20294;-80
2022/04/30 10:34:58;;;;;;;3.15;2.30;;;;;;;18.93;45.32;94890.72;5031736;28;20192;-85
2022/04/30 10:37:30;;;;;;;3.17;2.17;;;;;;;18.60;45.51;94884.03;5030731;28;20232;-80
2022/04/30 10:39:58;;;;;;;3.72;2.78;;;;;;;18.86;45.47;94874.94;5030563;28;20204;-79
2022/04/30 10:42:32;;;;;;;3.70;2.35;;;;;;;19.20;44.69;94883.19;5032762;28;20238;-89
2022/04/30 10:45:00;;;;;;;2.92;2.33;;;;;;;18.74;45.95;94891.66;5034699;28;20221;-73
2022/04/30 10:47:27;;;;;;;3.65;2.80;;;;;;;19.10;44.98;94882.72;5035321;28;20725;-83
2022/04/30 10:49:55;;;;;;;3.83;2.42;;;;;;;18.82;45.73;94890.59;5036665;28;20224;-83
2022/04/30 10:52:24;;;;;;;3.58;2.45;;;;;;;18.70;45.69;94877.13;5036481;28;20282;-85
2022/04/30 10:54:54;;;;;;;3.55;2.50;;;;;;;18.48;46.29;94893.25;5036766;28;20235;-84
2022/04/30 10:57:21;;;;;;;3.30;2.40;;;;;;;18.34;46.46;94887.59;5036765;28;20282;-81
2022/04/30 11:00:01;;;;;;;6.60;3.20;;;;;;;17.87;47.63;94895.50;5037831;28;20200;-77
2022/04/30 11:02:32;;;;;;;3.35;2.38;;;;;;;17.40;47.99;94899.34;5035268;28;20200;-83
2022/04/30 11:04:59;;;;;;;6.93;2.67;;;;;;;17.48;48.08;94887.38;5035681;28;20200;-85
2022/04/30 11:07:29;;;;;;;4.53;2.70;;;;;;;17.86;46.50;94871.97;5036246;28;20318;-81
2022/04/30 11:09:56;;;;;;;4.38;3.05;;;;;;;18.48;45.98;94879.56;5055974;28;20285;-87
2022/04/30 11:12:30;;;;;;;3.17;2.58;;;;;;;19.03;45.18;94871.63;5043545;28;20246;-84
2022/04/30 11:14:58;;;;;;;3.47;2.53;;;;;;;19.54;43.82;94849.03;5033333;28;20210;-85
2022/04/30 11:17:27;;;;;;;2.60;2.38;;;;;;;19.04;43.62;94862.22;5042293;28;20204;-82
2022/04/30 11:19:55;;;;;;;3.50;2.70;;;;;;;18.29;44.80;94890.66;5036918;28;20204;-81
2022/04/30 11:22:23;;;;;;;4.10;2.83;;;;;;;18.22;45.78;94868.59;5037684;28;20209;-81
2022/04/30 11:24:50;;;;;;;3.30;2.22;;;;;;;18.55;45.41;94891.78;5040104;28;20220;-87
2022/04/30 11:27:17;;;;;;;3.78;2.25;;;;;;;18.25;44.96;94867.88;5035605;28;20196;-79
2022/04/30 11:29:53;;;;;;;4.18;2.88;;;;;;;18.61;44.82;94884.84;5035463;28;20228;-84
2022/04/30 11:32:21;;;;;;;2.47;2.25;;;;;;;18.31;46.02;94871.84;5048148;28;20207;-78
2022/04/30 11:34:51;;;;;;;3.25;2.33;;;;;;;18.25;45.37;94878.84;5034953;28;20216;-86
2022/04/30 11:37:18;;;;;;;4.55;2.60;;;;;;;17.90;45.59;94878.31;5034942;28;20204;-85
2022/04/30 11:39:45;;;;;;;3.17;2.33;;;;;;;18.06;45.54;94887.16;5022496;28;20209;-83
2022/04/30 11:42:12;;;;;;;3.75;2.20;;;;;;;18.10;45.49;94874.31;5033737;28;20205;-82
2022/04/30 11:44:39;;;;;;;5.03;2.88;;;;;;;18.46;44.37;94868.16;5034943;28;20228;-87
2022/04/30 11:47:09;;;;;;;2.42;2.00;;;;;;;19.15;43.54;94863.13;5036388;28;20196;-86
2022/04/30 11:49:36;;;;;;;2.10;1.90;;;;;;;18.50;45.25;94856.44;5035319;28;20236;-87
2022/04/30 11:52:06;;;;;;;7.90;2.33;;;;;;;18.51;45.08;94863.50;5034457;28;20236;-83
2022/04/30 11:54:37;;;;;;;3.28;2.20;;;;;;;18.29;45.29;94874.22;5048031;28;20669;-87
2022/04/30 11:57:05;;;;;;;4.18;2.28;;;;;;;18.41;45.79;94860.25;5034800;28;20227;-88
2022/04/30 11:59:34;;;;;;;3.42;2.03;;;;;;;18.69;45.42;94864.56;5035655;28;20650;-88
2022/04/30 12:02:02;;;;;;;3.45;2.25;;;;;;;19.21;44.80;94862.81;5036955;28;20200;-89
2022/04/30 12:04:33;;;;;;;2.60;2.10;;;;;;;19.72;46.27;94854.66;5035185;28;20207;-82
2022/04/30 12:07:02;;;;;;;3.75;2.28;;;;;;;19.63;45.86;94859.69;5025634;28;20274;-83
2022/04/30 12:09:31;;;;;;;3.58;2.25;;;;;;;19.11;47.87;94859.56;5019672;28;20232;-83